Terminal Aerodrome Forecast
Issued by NWS

Home | Current Version | Previous Version | Text Only | Print | Product List | Glossary On
Versions: 1 2 3 4 5 6 7 8 9 10 11 12 13 14 15 16 17 18 19 20 21 22 23 24 25 26 27 28 29 30 31
000
FTUS46 KLOX 101751
TAFSBP
TAF
KSBP 101751Z 1018/1118 VRB03KT 2SM BR BKN004 OVC012
     FM101900 VRB03KT 5SM BR BKN008 OVC015
     FM102100 26008KT 6SM BR VCSH SCT007 OVC015
     FM110200 VRB03KT 5SM -RA BR SCT008 OVC015
     FM110600 VRB03KT 2SM -RA BR OVC006
     FM111400 VRB03KT 5SM BR VCSH BKN012 OVC025
     FM111600 VRB03KT P6SM SCT015 BKN025=

USA.gov is the U.S. government's official web portal to all federal, state and local government web resources and services.